Itape, Brazil
Current Conditions -  °F | °C
As of 6:00 AM on Sunday 26 Oct 2014 (Local Time) from SBIL Reporting Station
Rain Showers Rain Showers  
Wind Chill: 77°   Ceiling: Unl
Heat Index: 79°   Visibility: 5mi
Dew Point: 70°   Wind: 9mph
Humidity: 78%   Direction: 50°NE
Pressure: NA   Gusts: NA
Location:  14.9°S, 39.42°W
Report Text: SBIL 260900Z 05008KT 8000 VCSH SCT018 FEW025TCU SCT070 25/21 Q1014
Loading
Personal Weather Stations






























Interactive Weather Map
Tropical Storm Tracking
New forecast layout! Learn more

10-Day Weather Forecast

Advertisements
Track Severe Weather on mobile